Time;durP1;ratioP1;P1;durP2;ratioP2;P2;SDS_P1;SDS_P2;PMS_P1;PMS_P2;Temp;Humidity;BMP_temperature;BMP_pressure;BME280_temperature;BME280_humidity;BME280_pressure;Samples;Min_cycle;Max_cycle;Signal;HPM_P1;HPM_P2
2021/04/10 00:01:14;;;;;;;9.68;5.63;;;;;;;;;;5070017;28;20524;-63
2021/04/10 00:03:40;;;;;;;20.38;6.65;;;;;;;;;;5071274;28;20043;-63
2021/04/10 00:06:05;;;;;;;8.85;6.05;;;;;;;;;;5070453;28;20124;-63
2021/04/10 00:08:30;;;;;;;9.02;6.93;;;;;;;;;;5071364;28;20079;-64
2021/04/10 00:10:56;;;;;;;8.13;5.13;;;;;;;;;;5073101;28;20044;-63
2021/04/10 00:13:22;;;;;;;7.80;6.40;;;;;;;;;;5072128;28;20082;-64
2021/04/10 00:15:47;;;;;;;9.68;7.93;;;;;;;;;;5072802;28;20055;-63
2021/04/10 00:18:13;;;;;;;18.95;8.70;;;;;;;;;;5072483;28;20059;-64
2021/04/10 00:20:38;;;;;;;5.85;4.63;;;;;;;;;;5072584;28;20068;-63
2021/04/10 00:23:03;;;;;;;18.17;8.35;;;;;;;;;;5067905;28;20016;-64
2021/04/10 00:25:29;;;;;;;8.38;7.07;;;;;;;;;;5072352;28;20048;-63
2021/04/10 00:27:54;;;;;;;11.45;6.53;;;;;;;;;;5072615;28;20077;-63
2021/04/10 00:30:19;;;;;;;8.60;5.72;;;;;;;;;;5071395;28;20371;-63
2021/04/10 00:32:45;;;;;;;8.10;7.15;;;;;;;;;;5072673;28;20095;-63
2021/04/10 00:35:10;;;;;;;8.13;5.78;;;;;;;;;;5071973;28;20392;-63
2021/04/10 00:37:36;;;;;;;11.25;7.82;;;;;;;;;;5072122;28;20470;-64
2021/04/10 00:40:05;;;;;;;11.32;6.82;;;;;;;;;;5072481;28;20048;-63
2021/04/10 00:42:30;;;;;;;28.58;10.55;;;;;;;;;;5073480;28;20052;-63
2021/04/10 00:44:55;;;;;;;12.82;9.90;;;;;;;;;;5073916;28;20442;-64
2021/04/10 00:47:21;;;;;;;10.15;9.15;;;;;;;;;;5074323;28;20051;-64
2021/04/10 00:49:46;;;;;;;11.38;9.40;;;;;;;;;;5074690;28;20024;-64
2021/04/10 00:52:13;;;;;;;17.23;12.65;;;;;;;;;;5074172;28;20028;-62
2021/04/10 00:54:38;;;;;;;15.23;11.32;;;;;;;;;;5074908;28;20021;-62
2021/04/10 00:57:04;;;;;;;20.65;9.80;;;;;;;;;;5070606;28;20032;-62
2021/04/10 00:59:29;;;;;;;14.25;10.27;;;;;;;;;;5074077;28;20017;-62
2021/04/10 01:01:55;;;;;;;12.07;8.55;;;;;;;;;;5074564;28;20023;-62
2021/04/10 01:04:20;;;;;;;7.88;7.05;;;;;;;;;;5074109;28;20027;-62
2021/04/10 01:06:46;;;;;;;9.48;8.02;;;;;;;;;;5074934;28;20484;-62
2021/04/10 01:09:11;;;;;;;14.20;8.98;;;;;;;;;;5073941;28;20040;-62
2021/04/10 01:11:55;;;;;;;10.27;8.10;;;;;;;;;;5074656;28;20911;-62
2021/04/10 01:14:21;;;;;;;9.48;8.45;;;;;;;;;;5073091;28;20032;-61
2021/04/10 01:16:52;;;;;;;10.25;8.00;;;;;;;;;;5074363;28;20052;-62
2021/04/10 01:19:21;;;;;;;12.63;6.85;;;;;;;;;;5074104;28;20020;-62
2021/04/10 01:22:06;;;;;;;7.05;5.57;;;;;;;;;;5074142;28;20153;-62
2021/04/10 01:25:01;;;;;;;9.95;5.95;;;;;;;;;;5073021;28;20079;-62
2021/04/10 01:27:29;;;;;;;7.35;5.13;;;;;;;;;;5056465;28;20355;-62
2021/04/10 01:30:03;;;;;;;10.75;5.68;;;;;;;;;;5074114;28;20031;-62
2021/04/10 01:32:33;;;;;;;10.38;4.57;;;;;;;;;;5073856;28;20043;-62
2021/04/10 01:35:04;;;;;;;9.25;5.25;;;;;;;;;;5074321;28;20063;-62
2021/04/10 01:37:31;;;;;;;15.45;6.65;;;;;;;;;;5073417;28;20528;-62
2021/04/10 01:40:00;;;;;;;5.03;4.43;;;;;;;;;;5073823;28;20024;-62
2021/04/10 01:42:26;;;;;;;8.55;6.38;;;;;;;;;;5072458;28;20013;-62
2021/04/10 01:44:53;;;;;;;14.80;5.95;;;;;;;;;;5073896;28;20032;-62
2021/04/10 01:47:18;;;;;;;8.90;5.40;;;;;;;;;;5073439;28;20103;-67
2021/04/10 01:49:45;;;;;;;10.15;4.85;;;;;;;;;;5073437;28;20108;-67
2021/04/10 01:52:11;;;;;;;5.65;3.42;;;;;;;;;;5073141;28;20452;-67
2021/04/10 01:54:37;;;;;;;11.73;4.40;;;;;;;;;;5073017;28;20035;-67
2021/04/10 01:57:03;;;;;;;5.63;3.75;;;;;;;;;;5072993;28;20403;-67
2021/04/10 01:59:29;;;;;;;6.50;5.50;;;;;;;;;;5072962;28;20021;-62
2021/04/10 02:01:55;;;;;;;9.80;3.75;;;;;;;;;;5072270;28;20020;-62
2021/04/10 02:04:20;;;;;;;16.73;5.47;;;;;;;;;;5072473;28;20518;-62
2021/04/10 02:06:46;;;;;;;3.60;3.15;;;;;;;;;;5073252;28;20099;-61
2021/04/10 02:09:12;;;;;;;14.32;4.50;;;;;;;;;;5072853;28;20024;-62
2021/04/10 02:11:41;;;;;;;6.05;4.05;;;;;;;;;;5073844;28;20378;-62
2021/04/10 02:14:09;;;;;;;13.52;5.60;;;;;;;;;;5072965;28;20463;-62
2021/04/10 02:16:35;;;;;;;13.88;6.70;;;;;;;;;;5072827;28;20133;-61
2021/04/10 02:19:01;;;;;;;11.05;6.18;;;;;;;;;;5073321;28;20044;-62
2021/04/10 02:21:26;;;;;;;10.98;5.55;;;;;;;;;;5070988;28;20030;-62
2021/04/10 02:23:54;;;;;;;17.55;5.03;;;;;;;;;;5072786;28;20417;-62
2021/04/10 02:26:20;;;;;;;8.27;5.30;;;;;;;;;;5072772;28;20021;-62
2021/04/10 02:28:46;;;;;;;6.63;5.43;;;;;;;;;;5072797;28;20131;-62
2021/04/10 02:31:15;;;;;;;10.27;6.30;;;;;;;;;;5072939;28;20463;-63
2021/04/10 02:33:41;;;;;;;13.77;11.70;;;;;;;;;;5072874;28;20028;-62
2021/04/10 02:36:09;;;;;;;13.00;8.63;;;;;;;;;;5072474;28;20039;-63
2021/04/10 02:38:34;;;;;;;8.45;6.15;;;;;;;;;;5070830;28;20016;-62
2021/04/10 02:41:04;;;;;;;10.45;5.07;;;;;;;;;;5072664;28;20486;-62
2021/04/10 02:43:30;;;;;;;6.80;5.65;;;;;;;;;;5072433;28;20070;-62
2021/04/10 02:45:59;;;;;;;11.15;3.20;;;;;;;;;;5073104;28;20111;-62
2021/04/10 02:48:26;;;;;;;8.57;5.65;;;;;;;;;;5072414;28;20066;-62
2021/04/10 02:50:56;;;;;;;5.80;4.90;;;;;;;;;;5073079;28;20059;-62
2021/04/10 02:53:23;;;;;;;6.38;5.70;;;;;;;;;;5071861;28;20028;-62
2021/04/10 02:55:50;;;;;;;10.95;6.63;;;;;;;;;;5074417;28;20032;-68
2021/04/10 02:58:16;;;;;;;15.30;6.30;;;;;;;;;;5077701;28;20439;-68
2021/04/10 03:00:43;;;;;;;6.90;5.00;;;;;;;;;;5078022;28;20067;-68
2021/04/10 03:03:11;;;;;;;7.28;4.53;;;;;;;;;;5077363;28;20028;-69
2021/04/10 03:05:38;;;;;;;11.60;6.45;;;;;;;;;;5077304;28;20402;-68
2021/04/10 03:08:04;;;;;;;21.30;5.95;;;;;;;;;;5079253;28;20522;-67
2021/04/10 03:10:30;;;;;;;6.70;3.75;;;;;;;;;;5077185;28;20033;-68
2021/04/10 03:12:56;;;;;;;9.90;4.30;;;;;;;;;;5080011;28;20111;-63
2021/04/10 03:15:21;;;;;;;10.05;4.50;;;;;;;;;;5077170;28;20047;-63
2021/04/10 03:17:47;;;;;;;5.22;2.90;;;;;;;;;;5078731;28;20032;-63
2021/04/10 03:20:14;;;;;;;6.35;2.72;;;;;;;;;;5078329;28;20043;-63
2021/04/10 03:22:46;;;;;;;5.38;2.38;;;;;;;;;;5077311;28;20027;-63
2021/04/10 03:25:12;;;;;;;8.70;3.45;;;;;;;;;;5078497;28;20118;-63
2021/04/10 03:27:38;;;;;;;6.70;3.08;;;;;;;;;;5077333;28;20024;-63
2021/04/10 03:30:04;;;;;;;5.10;2.67;;;;;;;;;;5079619;28;20036;-68
2021/04/10 03:32:31;;;;;;;14.65;2.47;;;;;;;;;;5076473;28;20024;-68
2021/04/10 03:34:56;;;;;;;4.72;2.13;;;;;;;;;;5080082;28;20032;-63
2021/04/10 03:37:21;;;;;;;11.43;3.20;;;;;;;;;;5080233;28;20032;-63
2021/04/10 03:39:47;;;;;;;10.32;2.85;;;;;;;;;;5082468;28;20113;-68
2021/04/10 03:42:12;;;;;;;7.43;3.53;;;;;;;;;;5080418;28;20028;-68
2021/04/10 03:44:38;;;;;;;8.73;3.22;;;;;;;;;;5077302;28;20035;-68
2021/04/10 03:47:04;;;;;;;9.85;5.40;;;;;;;;;;5083045;28;20156;-68
2021/04/10 03:49:29;;;;;;;6.45;3.85;;;;;;;;;;5080454;28;20543;-67
2021/04/10 03:51:55;;;;;;;9.00;3.95;;;;;;;;;;5082920;28;20107;-68
2021/04/10 03:54:20;;;;;;;7.22;3.75;;;;;;;;;;5080511;28;20034;-68
2021/04/10 03:56:45;;;;;;;5.88;4.28;;;;;;;;;;5082094;28;20021;-68
2021/04/10 03:59:11;;;;;;;6.95;3.92;;;;;;;;;;5081715;28;20097;-69
2021/04/10 04:01:36;;;;;;;4.53;2.80;;;;;;;;;;5081054;28;20025;-63
2021/04/10 04:04:01;;;;;;;4.47;2.92;;;;;;;;;;5079331;28;20395;-63
2021/04/10 04:06:26;;;;;;;6.90;4.18;;;;;;;;;;5080412;28;20095;-63
2021/04/10 04:08:52;;;;;;;7.65;2.60;;;;;;;;;;5082630;28;20038;-64
2021/04/10 04:11:17;;;;;;;11.43;3.53;;;;;;;;;;5080766;28;20541;-63
2021/04/10 04:13:42;;;;;;;5.82;1.98;;;;;;;;;;5081322;28;20064;-63
2021/04/10 04:16:08;;;;;;;7.30;3.08;;;;;;;;;;5082210;28;20052;-63
2021/04/10 04:18:33;;;;;;;6.25;3.17;;;;;;;;;;5080010;28;20024;-64
2021/04/10 04:20:58;;;;;;;3.92;1.48;;;;;;;;;;5083338;28;20077;-64
2021/04/10 04:23:23;;;;;;;9.50;3.22;;;;;;;;;;5079696;28;20367;-63
2021/04/10 04:25:49;;;;;;;3.65;3.25;;;;;;;;;;5082467;28;20119;-63
2021/04/10 04:28:14;;;;;;;2.95;1.88;;;;;;;;;;5081014;28;20031;-63
2021/04/10 04:30:39;;;;;;;4.53;2.80;;;;;;;;;;5072360;28;20028;-62
2021/04/10 04:33:05;;;;;;;12.18;2.65;;;;;;;;;;5074612;28;20043;-64
2021/04/10 04:35:30;;;;;;;8.10;2.38;;;;;;;;;;5075984;28;20044;-64
2021/04/10 04:37:55;;;;;;;7.68;2.63;;;;;;;;;;5075841;28;20032;-65
2021/04/10 04:40:21;;;;;;;9.70;3.03;;;;;;;;;;5075563;28;20086;-64
2021/04/10 04:42:46;;;;;;;10.18;2.83;;;;;;;;;;5075736;28;20013;-64
2021/04/10 04:45:11;;;;;;;5.38;2.05;;;;;;;;;;5076090;28;20048;-64
2021/04/10 04:47:37;;;;;;;9.77;3.65;;;;;;;;;;5076594;28;20024;-64
2021/04/10 04:50:02;;;;;;;16.67;4.43;;;;;;;;;;5077867;28;20039;-63
2021/04/10 04:52:31;;;;;;;7.78;2.67;;;;;;;;;;5075086;28;20032;-64
2021/04/10 04:54:56;;;;;;;4.78;2.20;;;;;;;;;;5077564;28;20061;-64
2021/04/10 04:57:22;;;;;;;10.25;3.00;;;;;;;;;;5076413;28;20060;-69
2021/04/10 04:59:47;;;;;;;8.50;3.50;;;;;;;;;;5077383;28;20834;-68
2021/04/10 05:02:13;;;;;;;7.60;2.38;;;;;;;;;;5076006;28;20073;-68
2021/04/10 05:04:38;;;;;;;5.78;2.42;;;;;;;;;;5076368;28;20016;-68
2021/04/10 05:07:04;;;;;;;16.20;4.18;;;;;;;;;;5076905;28;20497;-69
2021/04/10 05:09:29;;;;;;;11.43;2.95;;;;;;;;;;5075621;28;20025;-68
2021/04/10 05:11:54;;;;;;;16.00;6.25;;;;;;;;;;5077559;28;20032;-64
2021/04/10 05:14:20;;;;;;;11.98;6.85;;;;;;;;;;5075864;28;20024;-64
2021/04/10 05:16:45;;;;;;;18.48;10.13;;;;;;;;;;5076348;28;20438;-64
2021/04/10 05:19:10;;;;;;;21.88;11.35;;;;;;;;;;5076646;28;20110;-64
2021/04/10 05:21:35;;;;;;;9.32;5.50;;;;;;;;;;5076899;28;20104;-64
2021/04/10 05:24:01;;;;;;;12.25;6.38;;;;;;;;;;5076300;28;20024;-65
2021/04/10 05:26:26;;;;;;;8.57;4.78;;;;;;;;;;5076199;28;20024;-69
2021/04/10 05:28:51;;;;;;;6.85;4.22;;;;;;;;;;5076927;28;20038;-69
2021/04/10 05:31:17;;;;;;;7.43;4.45;;;;;;;;;;5074589;28;20089;-69
2021/04/10 05:33:45;;;;;;;4.30;2.65;;;;;;;;;;5076130;28;20025;-69
2021/04/10 05:36:11;;;;;;;14.10;3.50;;;;;;;;;;5075859;28;20029;-69
2021/04/10 05:38:36;;;;;;;5.43;3.92;;;;;;;;;;5075172;28;20021;-68
2021/04/10 05:41:02;;;;;;;7.95;3.90;;;;;;;;;;5077843;28;20042;-64
2021/04/10 05:43:28;;;;;;;6.05;3.20;;;;;;;;;;5075955;28;20024;-64
2021/04/10 05:45:53;;;;;;;6.03;3.20;;;;;;;;;;5077938;28;20029;-64
2021/04/10 05:48:18;;;;;;;7.55;2.75;;;;;;;;;;5075828;28;20490;-64
2021/04/10 05:50:43;;;;;;;10.80;4.07;;;;;;;;;;5076912;28;20115;-64
2021/04/10 05:53:09;;;;;;;6.15;3.88;;;;;;;;;;5076299;28;20146;-64
2021/04/10 05:55:35;;;;;;;13.02;3.22;;;;;;;;;;5075849;28;20032;-69
2021/04/10 05:58:00;;;;;;;17.02;3.75;;;;;;;;;;5076432;28;20076;-69
2021/04/10 06:00:25;;;;;;;9.18;3.83;;;;;;;;;;5074582;28;20024;-69
2021/04/10 06:02:51;;;;;;;4.80;2.50;;;;;;;;;;5076633;28;20498;-63
2021/04/10 06:05:21;;;;;;;12.27;4.38;;;;;;;;;;5075391;28;20040;-64
2021/04/10 06:07:46;;;;;;;9.48;4.57;;;;;;;;;;5076458;28;20012;-63
2021/04/10 06:10:12;;;;;;;6.22;3.88;;;;;;;;;;5074964;28;20052;-65
2021/04/10 06:12:37;;;;;;;5.78;4.15;;;;;;;;;;5075633;28;20452;-64
2021/04/10 06:15:05;;;;;;;11.57;6.72;;;;;;;;;;5074840;28;20035;-64
2021/04/10 06:17:30;;;;;;;28.60;8.63;;;;;;;;;;5074971;28;20119;-64
2021/04/10 06:19:55;;;;;;;9.85;4.22;;;;;;;;;;5076852;28;20115;-69
2021/04/10 06:22:21;;;;;;;4.93;3.13;;;;;;;;;;5074290;28;20028;-69
2021/04/10 06:24:46;;;;;;;4.90;3.30;;;;;;;;;;5075884;28;20024;-69
2021/04/10 06:27:11;;;;;;;4.57;2.28;;;;;;;;;;5074147;28;20021;-69
2021/04/10 06:29:36;;;;;;;9.73;3.35;;;;;;;;;;5074653;28;20042;-69
2021/04/10 06:32:02;;;;;;;9.35;4.22;;;;;;;;;;5075482;28;20815;-70
2021/04/10 06:34:27;;;;;;;11.00;5.72;;;;;;;;;;5074604;28;20074;-62
2021/04/10 06:36:52;;;;;;;15.75;6.32;;;;;;;;;;5076098;28;20020;-62
2021/04/10 06:39:18;;;;;;;8.90;6.82;;;;;;;;;;5074417;28;20336;-63
2021/04/10 06:41:43;;;;;;;10.70;6.20;;;;;;;;;;5076087;28;20063;-62
2021/04/10 06:44:09;;;;;;;9.73;6.55;;;;;;;;;;5075015;28;20540;-62
2021/04/10 06:46:34;;;;;;;10.02;5.60;;;;;;;;;;5071243;28;20035;-63
2021/04/10 06:49:00;;;;;;;7.47;6.13;;;;;;;;;;5076073;28;20439;-62
2021/04/10 06:51:25;;;;;;;8.95;7.68;;;;;;;;;;5074867;28;20036;-62
2021/04/10 06:53:52;;;;;;;8.50;6.07;;;;;;;;;;5075911;28;20052;-62
2021/04/10 06:56:18;;;;;;;21.65;13.82;;;;;;;;;;5074733;28;20029;-63
2021/04/10 06:59:02;;;;;;;15.77;11.20;;;;;;;;;;5075754;28;20510;-62
2021/04/10 07:01:28;;;;;;;18.40;13.07;;;;;;;;;;5074538;28;20119;-62
2021/04/10 07:03:54;;;;;;;22.60;12.30;;;;;;;;;;5075865;28;20092;-62
2021/04/10 07:06:19;;;;;;;12.27;8.82;;;;;;;;;;5074744;28;20082;-62
2021/04/10 07:08:45;;;;;;;20.85;10.68;;;;;;;;;;5075374;28;20371;-62
2021/04/10 07:11:11;;;;;;;8.43;7.55;;;;;;;;;;5076147;28;20029;-62
2021/04/10 07:13:37;;;;;;;14.23;10.13;;;;;;;;;;5078684;28;20027;-63
2021/04/10 07:16:02;;;;;;;11.25;7.47;;;;;;;;;;5079614;28;20052;-67
2021/04/10 07:18:28;;;;;;;9.82;6.78;;;;;;;;;;5078010;28;20028;-67
2021/04/10 07:21:11;;;;;;;11.57;6.15;;;;;;;;;;5079547;28;20062;-67
2021/04/10 07:23:43;;;;;;;13.85;10.40;;;;;;;;;;5077946;28;20021;-67
2021/04/10 07:26:09;;;;;;;15.70;11.98;;;;;;;;;;5079068;28;20030;-62
2021/04/10 07:28:34;;;;;;;14.20;12.95;;;;;;;;;;5078237;28;20012;-62
2021/04/10 07:30:59;;;;;;;17.88;11.18;;;;;;;;;;5080236;28;20027;-61
2021/04/10 07:33:26;;;;;;;12.45;11.15;;;;;;;;;;5077914;28;20024;-61
2021/04/10 07:35:51;;;;;;;12.93;9.30;;;;;;;;;;5079874;28;20039;-61
2021/04/10 07:38:27;;;;;;;10.55;9.55;;;;;;;;;;5077900;28;20021;-61
2021/04/10 07:40:53;;;;;;;12.18;9.57;;;;;;;;;;5079532;28;20151;-62
2021/04/10 07:43:21;;;;;;;23.13;18.83;;;;;;;;;;5077880;28;20187;-61
2021/04/10 07:45:47;;;;;;;17.08;12.40;;;;;;;;;;5077864;28;20094;-61
2021/04/10 07:48:17;;;;;;;14.52;8.45;;;;;;;;;;5077884;28;20112;-61
2021/04/10 07:50:42;;;;;;;10.93;9.60;;;;;;;;;;5078787;28;20087;-61
2021/04/10 07:53:38;;;;;;;13.82;9.10;;;;;;;;;;5078279;28;20479;-63
2021/04/10 07:56:04;;;;;;;14.30;9.90;;;;;;;;;;5065081;28;20036;-63
2021/04/10 07:58:33;;;;;;;12.68;9.80;;;;;;;;;;5077769;28;20027;-62
2021/04/10 08:01:00;;;;;;;13.57;9.55;;;;;;;;;;5079222;28;20352;-62
2021/04/10 08:03:26;;;;;;;15.35;8.85;;;;;;;;;;5077447;28;20024;-63
2021/04/10 08:05:51;;;;;;;11.55;8.43;;;;;;;;;;5079497;28;20490;-62
2021/04/10 08:08:26;;;;;;;19.77;15.95;;;;;;;;;;5072666;28;20459;-65
2021/04/10 08:11:00;;;;;;;17.08;12.35;;;;;;;;;;5078831;28;20033;-74
2021/04/10 08:13:26;;;;;;;10.90;9.80;;;;;;;;;;5077251;28;20028;-61
2021/04/10 08:16:10;;;;;;;20.77;11.73;;;;;;;;;;5078543;28;20053;-61
2021/04/10 08:18:36;;;;;;;18.75;13.85;;;;;;;;;;5076771;28;20482;-61
2021/04/10 08:21:01;;;;;;;28.75;18.63;;;;;;;;;;5078329;28;20032;-61
2021/04/10 08:23:27;;;;;;;28.55;25.63;;;;;;;;;;5076362;28;20016;-62
2021/04/10 08:25:52;;;;;;;40.33;33.50;;;;;;;;;;5078718;28;20029;-61
2021/04/10 08:28:18;;;;;;;36.13;31.35;;;;;;;;;;5076788;28;20009;-61
2021/04/10 08:30:44;;;;;;;29.08;25.65;;;;;;;;;;5076451;28;20059;-62
2021/04/10 08:33:09;;;;;;;31.10;22.83;;;;;;;;;;5072305;28;20463;-63
2021/04/10 08:35:35;;;;;;;28.27;24.70;;;;;;;;;;5073233;28;20526;-65
2021/04/10 08:38:01;;;;;;;38.75;27.80;;;;;;;;;;5071893;28;20031;-66
2021/04/10 08:40:27;;;;;;;38.03;27.98;;;;;;;;;;5072977;28;20028;-72
2021/04/10 08:42:56;;;;;;;27.35;24.52;;;;;;;;;;5072256;28;20037;-65
2021/04/10 08:45:23;;;;;;;37.95;28.27;;;;;;;;;;5056157;28;20032;-60
2021/04/10 08:47:48;;;;;;;27.50;24.15;;;;;;;;;;5068663;28;20021;-60
2021/04/10 08:50:14;;;;;;;35.42;21.80;;;;;;;;;;5071494;28;20039;-60
2021/04/10 08:52:39;;;;;;;31.60;23.13;;;;;;;;;;5071194;28;20024;-60
2021/04/10 08:55:06;;;;;;;33.92;21.45;;;;;;;;;;5070027;28;20036;-60
2021/04/10 08:57:41;;;;;;;20.75;18.73;;;;;;;;;;5070144;28;20024;-60
2021/04/10 09:00:21;;;;;;;20.88;19.08;;;;;;;;;;5072199;28;20028;-60
2021/04/10 09:02:50;;;;;;;26.30;23.50;;;;;;;;;;5074592;28;20052;-61
2021/04/10 09:05:15;;;;;;;60.95;46.85;;;;;;;;;;5070221;28;20028;-60
2021/04/10 09:07:46;;;;;;;70.82;63.80;;;;;;;;;;5071120;28;20416;-60
2021/04/10 09:10:28;;;;;;;44.20;33.70;;;;;;;;;;5070392;28;20040;-60
2021/04/10 09:13:05;;;;;;;26.75;24.13;;;;;;;;;;5073114;28;20029;-60
2021/04/10 09:15:30;;;;;;;29.90;25.13;;;;;;;;;;5072374;28;20160;-61
2021/04/10 09:18:03;;;;;;;45.30;22.20;;;;;;;;;;5074409;28;20232;-60
2021/04/10 09:20:44;;;;;;;29.92;24.02;;;;;;;;;;5072831;28;20044;-61
2021/04/10 09:23:25;;;;;;;28.33;25.33;;;;;;;;;;5072490;28;20044;-62
2021/04/10 09:26:10;;;;;;;40.13;25.77;;;;;;;;;;5074294;28;20063;-60
2021/04/10 09:28:56;;;;;;;38.00;26.17;;;;;;;;;;5072226;28;20040;-61
2021/04/10 09:31:35;;;;;;;31.65;23.73;;;;;;;;;;5068004;28;20029;-61
2021/04/10 09:34:01;;;;;;;29.38;21.40;;;;;;;;;;5070141;28;20481;-61
2021/04/10 09:36:55;;;;;;;35.53;26.05;;;;;;;;;;5072842;28;20029;-62
2021/04/10 09:39:39;;;;;;;34.55;30.67;;;;;;;;;;5054548;28;20119;-61
2021/04/10 09:42:05;;;;;;;52.28;46.85;;;;;;;;;;5071589;28;20190;-61
2021/04/10 09:44:30;;;;;;;50.80;44.85;;;;;;;;;;5074029;28;20577;-62
2021/04/10 09:46:55;;;;;;;52.28;46.78;;;;;;;;;;5073777;28;20432;-61
2021/04/10 09:49:36;;;;;;;51.92;42.13;;;;;;;;;;5071292;28;20111;-61
2021/04/10 09:52:02;;;;;;;50.05;38.28;;;;;;;;;;5068844;28;20133;-61
2021/04/10 09:54:27;;;;;;;50.53;31.58;;;;;;;;;;5070903;28;20111;-64
2021/04/10 09:56:52;;;;;;;86.18;69.72;;;;;;;;;;5073933;28;20145;-65
2021/04/10 09:59:18;;;;;;;77.22;60.38;;;;;;;;;;5068745;28;20021;-65
2021/04/10 10:01:43;;;;;;;48.45;43.42;;;;;;;;;;5074873;28;20490;-63
2021/04/10 10:04:13;;;;;;;47.38;42.42;;;;;;;;;;5072246;28;20096;-61
2021/04/10 10:06:43;;;;;;;54.97;40.25;;;;;;;;;;5072445;28;20025;-62
2021/04/10 10:09:40;;;;;;;55.97;49.92;;;;;;;;;;5072900;28;20035;-61
2021/04/10 10:12:06;;;;;;;66.40;59.47;;;;;;;;;;5045271;28;20123;-61
2021/04/10 10:14:45;;;;;;;49.95;41.45;;;;;;;;;;5066412;28;20454;-61
2021/04/10 10:17:10;;;;;;;64.10;53.05;;;;;;;;;;5069173;28;20079;-61
2021/04/10 10:19:36;;;;;;;67.75;60.75;;;;;;;;;;5071506;28;20786;-61
2021/04/10 10:22:02;;;;;;;60.75;44.22;;;;;;;;;;5072192;28;20101;-61
2021/04/10 10:24:27;;;;;;;62.80;51.08;;;;;;;;;;5071347;28;20077;-61
2021/04/10 10:26:52;;;;;;;52.20;36.65;;;;;;;;;;5069271;28;20115;-61
2021/04/10 10:29:18;;;;;;;39.45;30.85;;;;;;;;;;5070983;28;20031;-61
2021/04/10 10:31:48;;;;;;;52.55;35.63;;;;;;;;;;5070947;28;20017;-61
2021/04/10 10:34:14;;;;;;;53.88;35.35;;;;;;;;;;5068906;28;20127;-61
2021/04/10 10:36:41;;;;;;;42.55;37.92;;;;;;;;;;5070188;28;20021;-61
2021/04/10 10:39:07;;;;;;;58.55;41.30;;;;;;;;;;5069154;28;20399;-62
2021/04/10 10:41:43;;;;;;;54.42;41.08;;;;;;;;;;5071138;28;20032;-61
2021/04/10 10:44:08;;;;;;;44.97;36.78;;;;;;;;;;5071153;28;20032;-61
2021/04/10 10:46:34;;;;;;;51.95;46.95;;;;;;;;;;5069434;28;20043;-61
2021/04/10 10:48:59;;;;;;;61.40;55.13;;;;;;;;;;5072615;28;20121;-62
2021/04/10 10:51:24;;;;;;;66.82;59.50;;;;;;;;;;5068899;28;20032;-62
2021/04/10 10:53:50;;;;;;;49.30;40.13;;;;;;;;;;5067935;28;20164;-62
2021/04/10 10:56:20;;;;;;;38.17;34.40;;;;;;;;;;5066839;28;20551;-61
2021/04/10 10:58:49;;;;;;;36.17;31.38;;;;;;;;;;5071267;28;20535;-61
2021/04/10 11:01:28;;;;;;;37.40;33.75;;;;;;;;;;5068886;28;20032;-62
2021/04/10 11:03:56;;;;;;;33.67;30.13;;;;;;;;;;5070615;28;20031;-62
2021/04/10 11:06:29;;;;;;;37.08;28.77;;;;;;;;;;5067551;28;20108;-62
2021/04/10 11:08:55;;;;;;;35.15;26.60;;;;;;;;;;5066157;28;20021;-62
2021/04/10 11:11:23;;;;;;;48.65;26.27;;;;;;;;;;5069298;28;20048;-61
2021/04/10 11:13:49;;;;;;;68.90;28.00;;;;;;;;;;5065115;28;20060;-61
2021/04/10 11:16:15;;;;;;;28.65;20.83;;;;;;;;;;5068369;28;20158;-61
2021/04/10 11:18:41;;;;;;;36.90;16.38;;;;;;;;;;5070347;28;20047;-62
2021/04/10 11:21:19;;;;;;;27.25;16.63;;;;;;;;;;5070638;28;20040;-61
2021/04/10 11:23:59;;;;;;;38.53;17.45;;;;;;;;;;5071155;28;20118;-61
2021/04/10 11:26:35;;;;;;;23.58;16.80;;;;;;;;;;5068880;28;20566;-61
2021/04/10 11:29:18;;;;;;;34.03;16.88;;;;;;;;;;5070996;28;20372;-62
2021/04/10 11:31:44;;;;;;;36.63;20.85;;;;;;;;;;5071617;28;20689;-61
2021/04/10 11:34:28;;;;;;;19.33;15.43;;;;;;;;;;5070908;28;20054;-62
2021/04/10 11:36:57;;;;;;;25.48;18.55;;;;;;;;;;5069407;28;20501;-60
2021/04/10 11:39:23;;;;;;;23.17;18.15;;;;;;;;;;5069267;28;20342;-61
2021/04/10 11:41:49;;;;;;;30.15;23.50;;;;;;;;;;5070279;28;20024;-61
2021/04/10 11:44:15;;;;;;;25.50;21.85;;;;;;;;;;5069404;28;20024;-61
2021/04/10 11:46:40;;;;;;;45.10;20.17;;;;;;;;;;5070366;28;20039;-62
2021/04/10 11:49:05;;;;;;;25.00;22.23;;;;;;;;;;5070508;28;20029;-61
2021/04/10 11:51:31;;;;;;;29.67;24.75;;;;;;;;;;5067953;28;20446;-62
2021/04/10 11:53:56;;;;;;;26.58;16.60;;;;;;;;;;5071372;28;20039;-62
2021/04/10 11:56:21;;;;;;;27.70;19.45;;;;;;;;;;5069470;28;20029;-63
2021/04/10 11:58:47;;;;;;;16.23;14.55;;;;;;;;;;5075215;28;20060;-62
2021/04/10 12:01:12;;;;;;;31.38;25.70;;;;;;;;;;5070220;28;20540;-63
2021/04/10 12:03:51;;;;;;;24.33;19.08;;;;;;;;;;5073111;28;20104;-62
2021/04/10 12:06:29;;;;;;;28.65;17.90;;;;;;;;;;5072996;28;20360;-63
2021/04/10 12:08:55;;;;;;;18.73;16.58;;;;;;;;;;5074238;28;20499;-63
2021/04/10 12:11:23;;;;;;;21.38;18.77;;;;;;;;;;5071620;28;20029;-63
2021/04/10 12:13:48;;;;;;;18.33;16.50;;;;;;;;;;5071963;28;20033;-62
2021/04/10 12:16:13;;;;;;;26.60;19.48;;;;;;;;;;5070496;28;20049;-62
2021/04/10 12:18:38;;;;;;;21.60;19.30;;;;;;;;;;5071733;28;20071;-63
2021/04/10 12:21:04;;;;;;;21.70;19.50;;;;;;;;;;5071034;28;20035;-62
2021/04/10 12:23:29;;;;;;;36.33;18.95;;;;;;;;;;5072854;28;20024;-63
2021/04/10 12:25:55;;;;;;;31.10;20.50;;;;;;;;;;5077792;28;20028;-62
2021/04/10 12:28:22;;;;;;;23.20;20.95;;;;;;;;;;5073837;28;20030;-64
2021/04/10 12:30:47;;;;;;;21.55;19.02;;;;;;;;;;5073438;28;20048;-63
2021/04/10 12:33:12;;;;;;;44.33;19.25;;;;;;;;;;5070640;28;20114;-64
2021/04/10 12:35:38;;;;;;;28.98;19.52;;;;;;;;;;5069338;28;20041;-63
2021/04/10 12:38:04;;;;;;;23.40;19.95;;;;;;;;;;5071443;28;20052;-63
2021/04/10 12:40:29;;;;;;;21.75;17.33;;;;;;;;;;5071410;28;20031;-64
2021/04/10 12:42:54;;;;;;;18.15;15.57;;;;;;;;;;5072793;28;20027;-63
2021/04/10 12:45:20;;;;;;;33.47;19.13;;;;;;;;;;5066893;28;20443;-64
2021/04/10 12:47:47;;;;;;;26.83;21.38;;;;;;;;;;5068536;28;20027;-63
2021/04/10 12:50:14;;;;;;;30.50;27.48;;;;;;;;;;5071335;28;20123;-62
2021/04/10 12:52:39;;;;;;;21.30;19.08;;;;;;;;;;5067420;28;20585;-62
2021/04/10 12:55:05;;;;;;;31.05;19.02;;;;;;;;;;5067909;28;20032;-63
2021/04/10 12:57:31;;;;;;;20.98;18.77;;;;;;;;;;5067655;28;20028;-62
2021/04/10 12:59:56;;;;;;;24.20;17.90;;;;;;;;;;5072739;28;20481;-62
2021/04/10 13:02:21;;;;;;;23.50;18.08;;;;;;;;;;5071996;28;20481;-62
2021/04/10 13:04:46;;;;;;;23.65;20.77;;;;;;;;;;5069205;28;20012;-62
2021/04/10 13:07:12;;;;;;;24.77;22.27;;;;;;;;;;5069564;28;20108;-62
2021/04/10 13:09:37;;;;;;;34.70;18.15;;;;;;;;;;5067105;28;20149;-61
2021/04/10 13:12:03;;;;;;;24.17;18.23;;;;;;;;;;5068021;28;20506;-61
2021/04/10 13:14:28;;;;;;;24.02;16.35;;;;;;;;;;5067860;28;20075;-61
2021/04/10 13:16:54;;;;;;;22.45;12.02;;;;;;;;;;5068238;28;20087;-61
2021/04/10 13:19:20;;;;;;;23.05;14.50;;;;;;;;;;5068257;28;20048;-62
2021/04/10 13:21:46;;;;;;;37.85;24.95;;;;;;;;;;5068405;28;20122;-62
2021/04/10 13:24:12;;;;;;;22.45;14.93;;;;;;;;;;5067908;28;20021;-62
2021/04/10 13:26:37;;;;;;;26.85;16.05;;;;;;;;;;5068162;28;20020;-63
2021/04/10 13:29:03;;;;;;;27.80;25.13;;;;;;;;;;5071037;28;20081;-62
2021/04/10 13:31:29;;;;;;;28.50;19.98;;;;;;;;;;5067540;28;20028;-62
2021/04/10 13:33:54;;;;;;;17.27;14.40;;;;;;;;;;5072472;28;20082;-62
2021/04/10 13:36:19;;;;;;;18.08;13.57;;;;;;;;;;5070194;28;20028;-62
2021/04/10 13:38:44;;;;;;;23.75;14.85;;;;;;;;;;5070528;28;20028;-62
2021/04/10 13:41:10;;;;;;;18.95;11.77;;;;;;;;;;5068630;28;20128;-61
2021/04/10 13:43:35;;;;;;;20.17;13.98;;;;;;;;;;5069859;28;20032;-62
2021/04/10 13:46:01;;;;;;;19.27;13.38;;;;;;;;;;5069154;28;20031;-62
2021/04/10 13:48:26;;;;;;;26.70;15.48;;;;;;;;;;5069109;28;20056;-62
2021/04/10 13:50:52;;;;;;;24.40;22.00;;;;;;;;;;5069343;28;20028;-62
2021/04/10 13:53:17;;;;;;;31.23;20.75;;;;;;;;;;5070812;28;20035;-62
2021/04/10 13:55:42;;;;;;;20.63;13.90;;;;;;;;;;5071466;28;20039;-62
2021/04/10 13:58:08;;;;;;;18.02;10.20;;;;;;;;;;5067298;28;20471;-62
2021/04/10 14:00:34;;;;;;;16.40;12.45;;;;;;;;;;5069704;28;20033;-62
2021/04/10 14:02:59;;;;;;;26.05;17.90;;;;;;;;;;5066394;28;20027;-62
2021/04/10 14:05:24;;;;;;;20.60;17.00;;;;;;;;;;5065479;28;20020;-61
2021/04/10 14:07:50;;;;;;;31.20;17.92;;;;;;;;;;5068535;28;20052;-61
2021/04/10 14:10:20;;;;;;;25.95;17.88;;;;;;;;;;5069623;28;20426;-61
2021/04/10 14:12:46;;;;;;;20.80;18.55;;;;;;;;;;5070530;28;20062;-62
2021/04/10 14:15:14;;;;;;;19.55;15.10;;;;;;;;;;5068531;28;20028;-62
2021/04/10 14:17:39;;;;;;;22.85;16.45;;;;;;;;;;5069753;28;20044;-62
2021/04/10 14:20:06;;;;;;;19.42;16.80;;;;;;;;;;5069328;28;20016;-62
2021/04/10 14:22:31;;;;;;;29.48;19.08;;;;;;;;;;5070107;28;20033;-63
2021/04/10 14:24:56;;;;;;;23.70;20.63;;;;;;;;;;5069971;28;20019;-63
2021/04/10 14:27:22;;;;;;;22.67;18.77;;;;;;;;;;5063929;28;20952;-62
2021/04/10 14:29:47;;;;;;;28.40;21.27;;;;;;;;;;5071347;28;20093;-62